sensor_id;sensor_type;location;lat;lon;timestamp;pressure;altitude;pressure_sealevel;temperature;humidity
38852;BME280;24605;50.092;9.182;2023-02-15T00:01:22;99328.34;;;0.70;100.00
38852;BME280;24605;50.092;9.182;2023-02-15T00:03:48;99327.06;;;0.79;100.00
38852;BME280;24605;50.092;9.182;2023-02-15T00:06:15;99337.31;;;0.81;100.00
38852;BME280;24605;50.092;9.182;2023-02-15T00:08:42;99339.97;;;0.79;100.00
38852;BME280;24605;50.092;9.182;2023-02-15T00:11:10;99334.03;;;0.77;100.00
38852;BME280;24605;50.092;9.182;2023-02-15T00:13:37;99326.06;;;0.82;100.00
38852;BME280;24605;50.092;9.182;2023-02-15T00:16:06;99323.91;;;0.91;100.00
38852;BME280;24605;50.092;9.182;2023-02-15T00:18:33;99333.25;;;0.94;100.00
38852;BME280;24605;50.092;9.182;2023-02-15T00:21:04;99334.03;;;0.96;100.00
38852;BME280;24605;50.092;9.182;2023-02-15T00:23:30;99332.88;;;0.65;100.00
38852;BME280;24605;50.092;9.182;2023-02-15T00:26:04;99326.66;;;0.69;100.00
38852;BME280;24605;50.092;9.182;2023-02-15T00:28:30;99322.03;;;0.76;100.00
38852;BME280;24605;50.092;9.182;2023-02-15T00:31:02;99318.50;;;0.78;100.00
38852;BME280;24605;50.092;9.182;2023-02-15T00:33:30;99328.97;;;0.75;100.00
38852;BME280;24605;50.092;9.182;2023-02-15T00:35:57;99323.13;;;0.53;100.00
38852;BME280;24605;50.092;9.182;2023-02-15T00:38:24;99319.97;;;0.65;100.00
38852;BME280;24605;50.092;9.182;2023-02-15T00:40:52;99317.88;;;0.73;100.00
38852;BME280;24605;50.092;9.182;2023-02-15T00:43:19;99307.53;;;0.73;100.00
38852;BME280;24605;50.092;9.182;2023-02-15T00:45:48;99308.53;;;0.71;100.00
38852;BME280;24605;50.092;9.182;2023-02-15T00:48:14;99318.50;;;0.78;100.00
38852;BME280;24605;50.092;9.182;2023-02-15T00:50:44;99314.28;;;0.76;100.00
38852;BME280;24605;50.092;9.182;2023-02-15T00:53:11;99311.53;;;0.61;100.00
38852;BME280;24605;50.092;9.182;2023-02-15T00:55:38;99300.59;;;0.56;100.00
38852;BME280;24605;50.092;9.182;2023-02-15T00:58:05;99312.66;;;0.56;100.00
38852;BME280;24605;50.092;9.182;2023-02-15T01:00:31;99308.81;;;0.65;100.00
38852;BME280;24605;50.092;9.182;2023-02-15T01:02:58;99306.16;;;0.66;100.00
38852;BME280;24605;50.092;9.182;2023-02-15T01:05:24;99288.81;;;0.51;100.00
38852;BME280;24605;50.092;9.182;2023-02-15T01:07:52;99306.59;;;0.57;100.00
38852;BME280;24605;50.092;9.182;2023-02-15T01:10:19;99301.06;;;0.65;100.00
38852;BME280;24605;50.092;9.182;2023-02-15T01:12:45;99303.53;;;0.49;100.00
38852;BME280;24605;50.092;9.182;2023-02-15T01:15:11;99297.59;;;0.66;100.00
38852;BME280;24605;50.092;9.182;2023-02-15T01:17:38;99294.31;;;0.43;100.00
38852;BME280;24605;50.092;9.182;2023-02-15T01:20:06;99289.50;;;0.54;100.00
38852;BME280;24605;50.092;9.182;2023-02-15T01:22:32;99290.00;;;0.62;100.00
38852;BME280;24605;50.092;9.182;2023-02-15T01:25:00;99290.13;;;0.59;100.00
38852;BME280;24605;50.092;9.182;2023-02-15T01:27:27;99285.47;;;0.49;100.00
38852;BME280;24605;50.092;9.182;2023-02-15T01:29:55;99285.94;;;0.57;100.00
38852;BME280;24605;50.092;9.182;2023-02-15T01:32:22;99285.91;;;0.39;100.00
38852;BME280;24605;50.092;9.182;2023-02-15T01:34:49;99263.50;;;0.40;100.00
38852;BME280;24605;50.092;9.182;2023-02-15T01:37:15;99282.28;;;0.43;100.00
38852;BME280;24605;50.092;9.182;2023-02-15T01:39:42;99266.84;;;0.61;100.00
38852;BME280;24605;50.092;9.182;2023-02-15T01:42:11;99273.19;;;0.54;100.00
38852;BME280;24605;50.092;9.182;2023-02-15T01:44:49;99275.31;;;0.63;100.00
38852;BME280;24605;50.092;9.182;2023-02-15T01:47:19;99274.53;;;0.43;100.00
38852;BME280;24605;50.092;9.182;2023-02-15T01:49:47;99273.81;;;0.59;100.00
38852;BME280;24605;50.092;9.182;2023-02-15T01:52:16;99272.34;;;0.53;100.00
38852;BME280;24605;50.092;9.182;2023-02-15T01:54:45;99267.34;;;0.50;100.00
38852;BME280;24605;50.092;9.182;2023-02-15T01:57:17;99264.28;;;0.42;100.00
38852;BME280;24605;50.092;9.182;2023-02-15T01:59:49;99259.88;;;0.44;100.00
38852;BME280;24605;50.092;9.182;2023-02-15T02:02:18;99256.31;;;0.46;100.00
38852;BME280;24605;50.092;9.182;2023-02-15T02:04:48;99244.78;;;0.17;100.00
38852;BME280;24605;50.092;9.182;2023-02-15T02:07:18;99244.78;;;-0.02;100.00
38852;BME280;24605;50.092;9.182;2023-02-15T02:09:46;99239.56;;;-0.01;100.00
38852;BME280;24605;50.092;9.182;2023-02-15T02:12:15;99239.56;;;-0.01;100.00
38852;BME280;24605;50.092;9.182;2023-02-15T02:14:43;99242.34;;;0.14;100.00
38852;BME280;24605;50.092;9.182;2023-02-15T02:17:15;99239.34;;;0.04;100.00
38852;BME280;24605;50.092;9.182;2023-02-15T02:19:59;99242.06;;;0.01;100.00
38852;BME280;24605;50.092;9.182;2023-02-15T02:23:04;99237.59;;;0.05;100.00
38852;BME280;24605;50.092;9.182;2023-02-15T02:32:04;99227.97;;;0.27;100.00
38852;BME280;24605;50.092;9.182;2023-02-15T02:34:42;99228.06;;;0.26;100.00
38852;BME280;24605;50.092;9.182;2023-02-15T02:37:17;99207.44;;;0.26;100.00
38852;BME280;24605;50.092;9.182;2023-02-15T02:39:51;99236.91;;;0.20;100.00
38852;BME280;24605;50.092;9.182;2023-02-15T02:42:27;99237.91;;;0.18;100.00
38852;BME280;24605;50.092;9.182;2023-02-15T02:45:00;99209.97;;;0.08;100.00
38852;BME280;24605;50.092;9.182;2023-02-15T02:47:32;99219.47;;;0.25;100.00
38852;BME280;24605;50.092;9.182;2023-02-15T02:50:03;99224.25;;;0.15;100.00
38852;BME280;24605;50.092;9.182;2023-02-15T02:52:36;99224.38;;;0.12;100.00
38852;BME280;24605;50.092;9.182;2023-02-15T02:55:03;99219.34;;;0.09;100.00
38852;BME280;24605;50.092;9.182;2023-02-15T02:57:32;99204.72;;;0.10;100.00
38852;BME280;24605;50.092;9.182;2023-02-15T03:00:02;99220.66;;;0.18;100.00
38852;BME280;24605;50.092;9.182;2023-02-15T03:02:33;99224.75;;;0.22;100.00
38852;BME280;24605;50.092;9.182;2023-02-15T03:05:05;99225.84;;;0.18;100.00
38852;BME280;24605;50.092;9.182;2023-02-15T03:07:34;99221.88;;;0.11;100.00
38852;BME280;24605;50.092;9.182;2023-02-15T03:10:07;99214.28;;;-0.11;100.00
38852;BME280;24605;50.092;9.182;2023-02-15T03:12:35;99213.78;;;-0.01;100.00
38852;BME280;24605;50.092;9.182;2023-02-15T03:15:04;99212.31;;;-0.06;100.00
38852;BME280;24605;50.092;9.182;2023-02-15T03:17:36;99215.66;;;-0.04;100.00
38852;BME280;24605;50.092;9.182;2023-02-15T03:20:09;99202.66;;;-0.01;100.00
38852;BME280;24605;50.092;9.182;2023-02-15T03:22:39;99208.81;;;0.14;100.00
38852;BME280;24605;50.092;9.182;2023-02-15T03:25:11;99203.44;;;0.19;100.00
38852;BME280;24605;50.092;9.182;2023-02-15T03:27:43;99174.00;;;0.05;100.00
38852;BME280;24605;50.092;9.182;2023-02-15T03:30:12;99214.41;;;0.24;100.00
38852;BME280;24605;50.092;9.182;2023-02-15T03:32:40;99209.03;;;0.28;100.00
38852;BME280;24605;50.092;9.182;2023-02-15T03:35:09;99209.81;;;0.30;100.00
38852;BME280;24605;50.092;9.182;2023-02-15T03:37:39;99207.00;;;0.16;100.00
38852;BME280;24605;50.092;9.182;2023-02-15T03:40:10;99195.75;;;-0.20;100.00
38852;BME280;24605;50.092;9.182;2023-02-15T03:43:00;99211.47;;;0.12;100.00
38852;BME280;24605;50.092;9.182;2023-02-15T03:45:30;99204.84;;;0.26;100.00
38852;BME280;24605;50.092;9.182;2023-02-15T03:47:58;99204.00;;;0.25;100.00
38852;BME280;24605;50.092;9.182;2023-02-15T03:50:30;99206.88;;;0.19;100.00
38852;BME280;24605;50.092;9.182;2023-02-15T03:53:18;99204.66;;;0.11;100.00
38852;BME280;24605;50.092;9.182;2023-02-15T03:55:47;99205.75;;;0.25;100.00
38852;BME280;24605;50.092;9.182;2023-02-15T03:58:13;99209.28;;;0.22;100.00
38852;BME280;24605;50.092;9.182;2023-02-15T04:00:59;99205.38;;;0.33;100.00
38852;BME280;24605;50.092;9.182;2023-02-15T04:03:45;99203.13;;;0.07;100.00
38852;BME280;24605;50.092;9.182;2023-02-15T04:06:17;99200.50;;;-0.10;100.00
38852;BME280;24605;50.092;9.182;2023-02-15T04:08:43;99202.75;;;0.15;100.00
38852;BME280;24605;50.092;9.182;2023-02-15T04:11:36;99197.13;;;0.07;100.00
38852;BME280;24605;50.092;9.182;2023-02-15T04:14:02;99195.38;;;0.26;100.00
38852;BME280;24605;50.092;9.182;2023-02-15T04:16:48;99202.50;;;0.02;100.00
38852;BME280;24605;50.092;9.182;2023-02-15T04:19:14;99204.09;;;0.05;100.00
38852;BME280;24605;50.092;9.182;2023-02-15T04:22:00;99206.97;;;0.18;100.00
38852;BME280;24605;50.092;9.182;2023-02-15T04:24:44;99210.31;;;0.01;100.00
38852;BME280;24605;50.092;9.182;2023-02-15T04:27:28;99200.53;;;-0.31;100.00
38852;BME280;24605;50.092;9.182;2023-02-15T04:29:54;99205.69;;;-0.12;100.00
38852;BME280;24605;50.092;9.182;2023-02-15T04:32:21;99194.16;;;-0.03;100.00
38852;BME280;24605;50.092;9.182;2023-02-15T04:34:47;99198.25;;;0.01;100.00
38852;BME280;24605;50.092;9.182;2023-02-15T04:37:15;99176.66;;;0.04;100.00
38852;BME280;24605;50.092;9.182;2023-02-15T04:39:41;99150.66;;;-0.11;100.00
38852;BME280;24605;50.092;9.182;2023-02-15T04:42:08;99188.28;;;0.12;100.00
38852;BME280;24605;50.092;9.182;2023-02-15T04:44:34;99184.09;;;0.10;100.00
38852;BME280;24605;50.092;9.182;2023-02-15T04:47:01;99194.63;;;0.05;100.00
38852;BME280;24605;50.092;9.182;2023-02-15T04:49:27;99191.66;;;-0.05;100.00
38852;BME280;24605;50.092;9.182;2023-02-15T04:51:54;99191.56;;;-0.03;100.00
38852;BME280;24605;50.092;9.182;2023-02-15T04:54:22;99188.91;;;0.18;100.00
38852;BME280;24605;50.092;9.182;2023-02-15T04:56:48;99189.59;;;0.21;100.00
38852;BME280;24605;50.092;9.182;2023-02-15T04:59:15;99188.19;;;0.33;100.00
38852;BME280;24605;50.092;9.182;2023-02-15T05:01:41;99181.03;;;0.38;100.00
38852;BME280;24605;50.092;9.182;2023-02-15T05:04:08;99180.44;;;0.33;100.00
38852;BME280;24605;50.092;9.182;2023-02-15T05:06:34;99191.31;;;0.21;100.00
38852;BME280;24605;50.092;9.182;2023-02-15T05:09:01;99192.31;;;0.18;100.00
38852;BME280;24605;50.092;9.182;2023-02-15T05:11:29;99189.66;;;0.20;100.00
38852;BME280;24605;50.092;9.182;2023-02-15T05:13:56;99184.78;;;0.13;100.00
38852;BME280;24605;50.092;9.182;2023-02-15T05:16:22;99193.69;;;0.25;100.00
38852;BME280;24605;50.092;9.182;2023-02-15T05:18:49;99185.09;;;0.07;100.00
38852;BME280;24605;50.092;9.182;2023-02-15T05:21:15;99184.19;;;0.08;100.00
38852;BME280;24605;50.092;9.182;2023-02-15T05:23:42;99185.41;;;0.19;100.00
38852;BME280;24605;50.092;9.182;2023-02-15T05:26:09;99178.22;;;0.25;100.00
38852;BME280;24605;50.092;9.182;2023-02-15T05:28:55;99179.66;;;0.31;100.00
38852;BME280;24605;50.092;9.182;2023-02-15T05:31:22;99159.81;;;0.33;100.00
38852;BME280;24605;50.092;9.182;2023-02-15T05:33:48;99182.25;;;0.31;100.00
38852;BME280;24605;50.092;9.182;2023-02-15T05:36:14;99171.84;;;0.33;100.00
38852;BME280;24605;50.092;9.182;2023-02-15T05:38:41;99170.38;;;-0.10;100.00
38852;BME280;24605;50.092;9.182;2023-02-15T05:41:09;99176.44;;;0.08;100.00
38852;BME280;24605;50.092;9.182;2023-02-15T05:43:39;99157.63;;;-0.13;100.00
38852;BME280;24605;50.092;9.182;2023-02-15T05:46:07;99172.28;;;-0.13;100.00
38852;BME280;24605;50.092;9.182;2023-02-15T05:48:34;99171.50;;;0.04;100.00
38852;BME280;24605;50.092;9.182;2023-02-15T05:51:02;99164.72;;;0.01;100.00
38852;BME280;24605;50.092;9.182;2023-02-15T05:53:30;99162.44;;;0.31;100.00
38852;BME280;24605;50.092;9.182;2023-02-15T05:55:57;99161.22;;;0.21;100.00
38852;BME280;24605;50.092;9.182;2023-02-15T05:58:25;99163.81;;;0.02;100.00
38852;BME280;24605;50.092;9.182;2023-02-15T06:00:52;99168.28;;;0.18;100.00
38852;BME280;24605;50.092;9.182;2023-02-15T06:03:20;99160.81;;;0.11;100.00
38852;BME280;24605;50.092;9.182;2023-02-15T06:05:46;99179.75;;;0.29;100.00
38852;BME280;24605;50.092;9.182;2023-02-15T06:08:13;99168.97;;;0.21;100.00
38852;BME280;24605;50.092;9.182;2023-02-15T06:10:39;99171.75;;;0.17;100.00
38852;BME280;24605;50.092;9.182;2023-02-15T06:13:06;99172.38;;;0.22;100.00
38852;BME280;24605;50.092;9.182;2023-02-15T06:15:32;99176.88;;;-0.01;100.00
38852;BME280;24605;50.092;9.182;2023-02-15T06:17:59;99185.34;;;0.01;100.00
38852;BME280;24605;50.092;9.182;2023-02-15T06:20:27;99179.75;;;0.10;100.00
38852;BME280;24605;50.092;9.182;2023-02-15T06:22:56;99187.78;;;0.04;100.00
38852;BME280;24605;50.092;9.182;2023-02-15T06:25:23;99192.53;;;0.13;100.00
38852;BME280;24605;50.092;9.182;2023-02-15T06:27:49;99191.06;;;0.08;100.00
38852;BME280;24605;50.092;9.182;2023-02-15T06:30:16;99188.81;;;0.19;100.00
38852;BME280;24605;50.092;9.182;2023-02-15T06:32:43;99187.38;;;0.13;100.00
38852;BME280;24605;50.092;9.182;2023-02-15T06:35:09;99193.47;;;0.30;100.00
38852;BME280;24605;50.092;9.182;2023-02-15T06:37:37;99195.66;;;0.20;100.00
38852;BME280;24605;50.092;9.182;2023-02-15T06:40:04;99198.94;;;0.24;100.00
38852;BME280;24605;50.092;9.182;2023-02-15T06:42:31;99192.31;;;0.18;100.00
38852;BME280;24605;50.092;9.182;2023-02-15T06:44:57;99201.81;;;0.18;100.00
38852;BME280;24605;50.092;9.182;2023-02-15T06:47:25;99213.03;;;0.17;100.00
38852;BME280;24605;50.092;9.182;2023-02-15T06:49:51;99206.41;;;0.11;100.00
38852;BME280;24605;50.092;9.182;2023-02-15T06:52:18;99207.75;;;0.37;100.00
38852;BME280;24605;50.092;9.182;2023-02-15T06:54:46;99201.06;;;0.33;100.00
38852;BME280;24605;50.092;9.182;2023-02-15T06:57:12;99210.63;;;0.31;100.00
38852;BME280;24605;50.092;9.182;2023-02-15T06:59:38;99209.50;;;0.37;100.00
38852;BME280;24605;50.092;9.182;2023-02-15T07:02:05;99206.75;;;0.40;100.00
38852;BME280;24605;50.092;9.182;2023-02-15T07:04:31;99209.41;;;0.38;100.00
38852;BME280;24605;50.092;9.182;2023-02-15T07:06:58;99209.25;;;0.24;100.00
38852;BME280;24605;50.092;9.182;2023-02-15T07:09:25;99212.16;;;0.35;100.00
38852;BME280;24605;50.092;9.182;2023-02-15T07:11:54;99216.63;;;0.12;100.00
38852;BME280;24605;50.092;9.182;2023-02-15T07:14:38;99218.22;;;0.34;100.00
38852;BME280;24605;50.092;9.182;2023-02-15T07:17:05;99216.00;;;0.26;100.00
38852;BME280;24605;50.092;9.182;2023-02-15T07:19:32;99194.75;;;0.21;100.00
38852;BME280;24605;50.092;9.182;2023-02-15T07:21:58;99215.47;;;0.37;100.00
38852;BME280;24605;50.092;9.182;2023-02-15T07:24:26;99206.50;;;0.27;100.00
38852;BME280;24605;50.092;9.182;2023-02-15T07:26:55;99151.00;;;0.01;100.00
38852;BME280;24605;50.092;9.182;2023-02-15T07:29:22;99208.50;;;0.39;100.00
38852;BME280;24605;50.092;9.182;2023-02-15T07:31:52;99209.81;;;0.30;100.00
38852;BME280;24605;50.092;9.182;2023-02-15T07:34:18;99215.56;;;0.36;100.00
38852;BME280;24605;50.092;9.182;2023-02-15T07:36:45;99197.41;;;0.37;100.00
38852;BME280;24605;50.092;9.182;2023-02-15T07:39:12;99219.22;;;0.49;100.00
38852;BME280;24605;50.092;9.182;2023-02-15T07:41:38;99224.72;;;0.60;100.00
38852;BME280;24605;50.092;9.182;2023-02-15T07:44:11;99220.50;;;0.40;100.00
38852;BME280;24605;50.092;9.182;2023-02-15T07:46:38;99219.53;;;0.60;100.00
38852;BME280;24605;50.092;9.182;2023-02-15T07:49:04;99214.22;;;0.46;100.00
38852;BME280;24605;50.092;9.182;2023-02-15T07:51:31;99162.91;;;0.40;100.00
38852;BME280;24605;50.092;9.182;2023-02-15T07:53:57;99213.84;;;0.71;100.00
38852;BME280;24605;50.092;9.182;2023-02-15T07:56:24;99213.03;;;0.88;100.00
38852;BME280;24605;50.092;9.182;2023-02-15T07:58:50;99213.56;;;0.60;100.00
38852;BME280;24605;50.092;9.182;2023-02-15T08:01:19;99213.84;;;0.54;100.00
38852;BME280;24605;50.092;9.182;2023-02-15T08:03:46;99210.31;;;0.74;100.00
38852;BME280;24605;50.092;9.182;2023-02-15T08:06:12;99218.56;;;0.63;100.00
38852;BME280;24605;50.092;9.182;2023-02-15T08:08:41;99214.53;;;0.57;100.00
38852;BME280;24605;50.092;9.182;2023-02-15T08:11:15;99216.41;;;0.54;100.00
38852;BME280;24605;50.092;9.182;2023-02-15T08:14:00;99217.66;;;0.64;100.00
38852;BME280;24605;50.092;9.182;2023-02-15T08:16:32;99198.50;;;0.14;100.00
38852;BME280;24605;50.092;9.182;2023-02-15T08:19:01;99209.63;;;0.53;100.00
38852;BME280;24605;50.092;9.182;2023-02-15T08:21:29;99215.00;;;0.66;100.00
38852;BME280;24605;50.092;9.182;2023-02-15T08:23:56;99204.00;;;0.80;100.00
38852;BME280;24605;50.092;9.182;2023-02-15T08:26:24;99202.84;;;0.85;100.00
38852;BME280;24605;50.092;9.182;2023-02-15T08:28:51;99205.44;;;1.03;100.00
38852;BME280;24605;50.092;9.182;2023-02-15T08:31:18;99207.78;;;1.07;100.00
38852;BME280;24605;50.092;9.182;2023-02-15T08:33:48;99202.03;;;1.02;100.00
38852;BME280;24605;50.092;9.182;2023-02-15T08:36:17;99202.47;;;1.11;100.00
38852;BME280;24605;50.092;9.182;2023-02-15T08:38:44;99202.69;;;1.23;100.00
38852;BME280;24605;50.092;9.182;2023-02-15T08:41:15;99195.53;;;1.29;100.00
38852;BME280;24605;50.092;9.182;2023-02-15T08:43:44;99200.75;;;1.45;100.00
38852;BME280;24605;50.092;9.182;2023-02-15T08:46:12;99199.53;;;1.34;100.00
38852;BME280;24605;50.092;9.182;2023-02-15T08:48:39;99195.81;;;1.40;100.00
38852;BME280;24605;50.092;9.182;2023-02-15T08:51:11;99189.88;;;1.38;100.00
38852;BME280;24605;50.092;9.182;2023-02-15T08:53:38;99179.44;;;1.57;100.00
38852;BME280;24605;50.092;9.182;2023-02-15T08:56:06;99167.59;;;1.53;100.00
38852;BME280;24605;50.092;9.182;2023-02-15T08:58:33;99179.72;;;1.35;100.00
38852;BME280;24605;50.092;9.182;2023-02-15T09:01:00;99163.50;;;1.65;100.00
38852;BME280;24605;50.092;9.182;2023-02-15T09:03:28;99171.78;;;1.71;100.00
38852;BME280;24605;50.092;9.182;2023-02-15T09:05:58;99172.59;;;1.56;100.00
38852;BME280;24605;50.092;9.182;2023-02-15T09:08:27;99165.97;;;1.34;100.00
38852;BME280;24605;50.092;9.182;2023-02-15T09:11:03;99164.84;;;1.56;100.00
38852;BME280;24605;50.092;9.182;2023-02-15T09:13:30;99159.38;;;1.29;100.00
38852;BME280;24605;50.092;9.182;2023-02-15T09:15:59;99159.84;;;1.53;100.00
38852;BME280;24605;50.092;9.182;2023-02-15T09:18:25;99160.44;;;1.58;100.00
38852;BME280;24605;50.092;9.182;2023-02-15T09:20:52;99161.59;;;1.68;100.00
38852;BME280;24605;50.092;9.182;2023-02-15T09:23:20;99161.78;;;1.65;100.00
38852;BME280;24605;50.092;9.182;2023-02-15T09:25:48;99163.09;;;1.72;100.00
38852;BME280;24605;50.092;9.182;2023-02-15T09:28:14;99159.19;;;1.97;100.00
38852;BME280;24605;50.092;9.182;2023-02-15T09:30:41;99147.69;;;1.87;100.00
38852;BME280;24605;50.092;9.182;2023-02-15T09:33:07;99155.75;;;2.13;100.00
38852;BME280;24605;50.092;9.182;2023-02-15T09:35:33;99123.84;;;1.82;100.00
38852;BME280;24605;50.092;9.182;2023-02-15T09:38:00;99154.63;;;2.02;100.00
38852;BME280;24605;50.092;9.182;2023-02-15T09:40:29;99150.47;;;1.34;100.00
38852;BME280;24605;50.092;9.182;2023-02-15T09:43:12;99147.34;;;1.77;100.00
38852;BME280;24605;50.092;9.182;2023-02-15T09:45:58;99148.84;;;2.13;100.00
38852;BME280;24605;50.092;9.182;2023-02-15T09:48:38;99146.53;;;2.39;100.00
38852;BME280;24605;50.092;9.182;2023-02-15T09:51:28;99147.16;;;2.28;100.00
38852;BME280;24605;50.092;9.182;2023-02-15T09:54:09;99082.22;;;1.86;100.00
38852;BME280;24605;50.092;9.182;2023-02-15T09:56:45;99142.72;;;2.30;100.00
38852;BME280;24605;50.092;9.182;2023-02-15T09:59:19;99146.22;;;2.29;100.00
38852;BME280;24605;50.092;9.182;2023-02-15T10:01:56;99142.25;;;2.54;100.00
38852;BME280;24605;50.092;9.182;2023-02-15T10:04:46;99131.53;;;2.60;100.00
38852;BME280;24605;50.092;9.182;2023-02-15T10:07:27;99144.34;;;2.17;100.00
38852;BME280;24605;50.092;9.182;2023-02-15T10:10:08;99138.44;;;2.29;100.00
38852;BME280;24605;50.092;9.182;2023-02-15T10:12:51;99140.31;;;2.58;100.00
38852;BME280;24605;50.092;9.182;2023-02-15T10:18:33;99137.59;;;2.75;100.00
38852;BME280;24605;50.092;9.182;2023-02-15T10:21:07;99132.81;;;3.27;100.00
38852;BME280;24605;50.092;9.182;2023-02-15T10:23:49;99130.25;;;3.12;100.00
38852;BME280;24605;50.092;9.182;2023-02-15T10:26:19;99139.66;;;3.57;100.00
38852;BME280;24605;50.092;9.182;2023-02-15T10:28:48;99125.25;;;3.38;100.00
38852;BME280;24605;50.092;9.182;2023-02-15T10:31:26;99135.88;;;3.48;100.00
38852;BME280;24605;50.092;9.182;2023-02-15T10:34:04;99141.13;;;3.32;100.00
38852;BME280;24605;50.092;9.182;2023-02-15T10:36:45;99144.19;;;3.39;100.00
38852;BME280;24605;50.092;9.182;2023-02-15T10:39:20;99107.66;;;3.29;100.00
38852;BME280;24605;50.092;9.182;2023-02-15T10:41:55;99142.28;;;3.84;100.00
38852;BME280;24605;50.092;9.182;2023-02-15T10:44:34;99146.06;;;3.93;100.00
38852;BME280;24605;50.092;9.182;2023-02-15T10:47:18;99150.13;;;4.24;100.00
38852;BME280;24605;50.092;9.182;2023-02-15T10:50:07;99150.28;;;4.36;100.00
38852;BME280;24605;50.092;9.182;2023-02-15T10:52:49;99147.97;;;4.31;100.00
38852;BME280;24605;50.092;9.182;2023-02-15T10:55:27;99148.06;;;4.02;100.00
38852;BME280;24605;50.092;9.182;2023-02-15T10:58:03;99148.59;;;3.80;100.00
38852;BME280;24605;50.092;9.182;2023-02-15T11:00:36;99151.34;;;3.35;100.00
38852;BME280;24605;50.092;9.182;2023-02-15T11:03:29;99152.91;;;3.23;100.00
38852;BME280;24605;50.092;9.182;2023-02-15T11:06:03;99155.59;;;3.36;100.00
38852;BME280;24605;50.092;9.182;2023-02-15T11:08:34;99157.91;;;3.41;100.00
38852;BME280;24605;50.092;9.182;2023-02-15T11:11:04;99136.41;;;3.39;100.00
38852;BME280;24605;50.092;9.182;2023-02-15T11:13:34;99141.06;;;3.90;100.00
38852;BME280;24605;50.092;9.182;2023-02-15T11:16:05;99138.94;;;3.97;100.00
38852;BME280;24605;50.092;9.182;2023-02-15T11:18:36;99140.72;;;4.36;100.00
38852;BME280;24605;50.092;9.182;2023-02-15T11:21:08;99144.56;;;4.31;100.00
38852;BME280;24605;50.092;9.182;2023-02-15T11:23:40;99142.56;;;4.21;100.00
38852;BME280;24605;50.092;9.182;2023-02-15T11:26:13;99132.88;;;4.23;100.00
38852;BME280;24605;50.092;9.182;2023-02-15T11:28:44;99140.88;;;4.20;100.00
38852;BME280;24605;50.092;9.182;2023-02-15T11:31:17;99135.09;;;4.02;100.00
38852;BME280;24605;50.092;9.182;2023-02-15T11:33:47;99131.03;;;3.98;100.00
38852;BME280;24605;50.092;9.182;2023-02-15T11:36:20;99139.31;;;3.90;100.00
38852;BME280;24605;50.092;9.182;2023-02-15T11:38:52;99139.63;;;4.13;100.00
38852;BME280;24605;50.092;9.182;2023-02-15T11:41:24;99134.09;;;4.05;100.00
38852;BME280;24605;50.092;9.182;2023-02-15T11:43:57;99137.53;;;4.46;100.00
38852;BME280;24605;50.092;9.182;2023-02-15T11:46:26;99122.41;;;4.65;100.00
38852;BME280;24605;50.092;9.182;2023-02-15T11:48:55;99131.25;;;4.89;100.00
38852;BME280;24605;50.092;9.182;2023-02-15T11:51:22;99100.88;;;4.50;100.00
38852;BME280;24605;50.092;9.182;2023-02-15T11:53:49;99125.97;;;5.29;100.00
38852;BME280;24605;50.092;9.182;2023-02-15T11:56:18;99123.19;;;5.56;99.02
38852;BME280;24605;50.092;9.182;2023-02-15T11:58:49;99096.16;;;5.83;98.39
38852;BME280;24605;50.092;9.182;2023-02-15T12:01:21;99105.97;;;6.28;96.20
38852;BME280;24605;50.092;9.182;2023-02-15T12:03:51;99109.56;;;6.74;92.89
38852;BME280;24605;50.092;9.182;2023-02-15T12:06:24;99109.22;;;6.90;91.25
38852;BME280;24605;50.092;9.182;2023-02-15T12:09:03;99106.72;;;6.30;92.34
38852;BME280;24605;50.092;9.182;2023-02-15T12:11:36;99106.56;;;6.20;93.42
38852;BME280;24605;50.092;9.182;2023-02-15T12:14:04;99114.22;;;5.97;94.94
38852;BME280;24605;50.092;9.182;2023-02-15T12:16:41;99104.66;;;5.98;94.11
38852;BME280;24605;50.092;9.182;2023-02-15T12:19:21;99108.69;;;6.51;92.16
38852;BME280;24605;50.092;9.182;2023-02-15T12:21:52;99096.78;;;6.35;92.45
38852;BME280;24605;50.092;9.182;2023-02-15T12:24:21;99079.00;;;6.29;93.43
38852;BME280;24605;50.092;9.182;2023-02-15T12:26:56;99088.22;;;6.22;93.27
38852;BME280;24605;50.092;9.182;2023-02-15T12:29:27;99081.19;;;6.11;95.39
38852;BME280;24605;50.092;9.182;2023-02-15T12:31:56;99077.66;;;6.12;94.75
38852;BME280;24605;50.092;9.182;2023-02-15T12:34:26;99071.84;;;6.44;94.16
38852;BME280;24605;50.092;9.182;2023-02-15T12:37:00;99072.06;;;6.05;95.57
38852;BME280;24605;50.092;9.182;2023-02-15T12:39:29;99072.19;;;5.29;100.00
38852;BME280;24605;50.092;9.182;2023-02-15T12:41:59;99072.06;;;5.31;100.00
38852;BME280;24605;50.092;9.182;2023-02-15T12:44:28;99069.50;;;5.18;100.00
38852;BME280;24605;50.092;9.182;2023-02-15T12:47:00;99065.97;;;5.56;100.00
38852;BME280;24605;50.092;9.182;2023-02-15T12:49:27;99066.09;;;5.79;99.95
38852;BME280;24605;50.092;9.182;2023-02-15T12:51:57;99069.34;;;5.45;100.00
38852;BME280;24605;50.092;9.182;2023-02-15T12:54:34;99062.09;;;5.25;100.00
38852;BME280;24605;50.092;9.182;2023-02-15T12:57:23;99056.16;;;5.23;100.00
38852;BME280;24605;50.092;9.182;2023-02-15T12:59:52;99054.25;;;4.88;100.00
38852;BME280;24605;50.092;9.182;2023-02-15T13:02:34;99044.03;;;5.23;100.00
38852;BME280;24605;50.092;9.182;2023-02-15T13:05:16;99053.56;;;5.23;100.00
38852;BME280;24605;50.092;9.182;2023-02-15T13:07:49;99045.19;;;5.06;100.00
38852;BME280;24605;50.092;9.182;2023-02-15T13:10:24;99032.00;;;5.33;100.00
38852;BME280;24605;50.092;9.182;2023-02-15T13:12:52;99036.25;;;5.47;100.00
38852;BME280;24605;50.092;9.182;2023-02-15T13:15:32;99023.84;;;5.27;100.00
38852;BME280;24605;50.092;9.182;2023-02-15T13:18:01;99029.34;;;5.59;100.00
38852;BME280;24605;50.092;9.182;2023-02-15T13:20:28;99026.78;;;5.71;100.00
38852;BME280;24605;50.092;9.182;2023-02-15T13:22:59;98955.84;;;5.44;100.00
38852;BME280;24605;50.092;9.182;2023-02-15T13:25:32;99012.78;;;5.85;99.77
38852;BME280;24605;50.092;9.182;2023-02-15T13:28:02;99005.75;;;5.98;99.48